createdAt,value
2019-05-11T00:01:08.241Z,100726.52
2019-05-11T00:03:35.204Z,100726.45
2019-05-11T00:06:03.372Z,100722.44
2019-05-11T00:08:30.363Z,100735.25
2019-05-11T00:10:57.145Z,100733.12
2019-05-11T00:13:24.363Z,100727.48
2019-05-11T00:15:51.230Z,100729.16
2019-05-11T00:18:18.326Z,100727.31
2019-05-11T00:20:45.642Z,100718.02
2019-05-11T00:23:12.325Z,100726.84
2019-05-11T00:25:39.357Z,100722.91
2019-05-11T00:28:06.124Z,100710.58
2019-05-11T00:30:33.124Z,100716.69
2019-05-11T00:33:01.570Z,100709.70
2019-05-11T00:35:28.442Z,100712.84
2019-05-11T00:37:55.071Z,100713.33
2019-05-11T00:40:21.959Z,100713.30
2019-05-11T00:42:48.577Z,100715.97
2019-05-11T00:45:15.590Z,100711.58
2019-05-11T00:47:42.677Z,100717.52
2019-05-11T00:50:09.741Z,100720.58
2019-05-11T00:52:36.351Z,100728.97
2019-05-11T00:55:04.457Z,100737.81
2019-05-11T00:57:31.325Z,100738.30
2019-05-11T00:59:58.467Z,100744.48
2019-05-11T01:02:25.201Z,100747.10
2019-05-11T01:04:53.133Z,100742.70
2019-05-11T01:07:20.055Z,100748.47
2019-05-11T01:09:46.922Z,100751.59
2019-05-11T01:12:13.826Z,100755.56
2019-05-11T01:14:40.653Z,100751.11
2019-05-11T01:17:07.885Z,100748.94
2019-05-11T01:19:34.802Z,100751.14
2019-05-11T01:22:01.893Z,100753.42
2019-05-11T01:24:28.670Z,100745.87
2019-05-11T01:26:55.752Z,100746.29
2019-05-11T01:29:23.097Z,100743.56
2019-05-11T01:31:50.290Z,100740.48
2019-05-11T01:34:17.300Z,100731.71
2019-05-11T01:36:44.104Z,100734.80
2019-05-11T01:39:10.951Z,100730.92
2019-05-11T01:41:37.951Z,100724.77
2019-05-11T01:44:04.775Z,100723.45
2019-05-11T01:46:31.228Z,100716.88
2019-05-11T01:48:58.049Z,100712.52
2019-05-11T01:51:24.892Z,100715.30
2019-05-11T01:53:52.146Z,100728.63
2019-05-11T01:56:18.851Z,100733.50
2019-05-11T01:58:46.360Z,100740.95
2019-05-11T02:01:13.914Z,100743.19
2019-05-11T02:03:40.694Z,100749.77
2019-05-11T02:06:07.926Z,100759.81
2019-05-11T02:08:34.665Z,100758.52
2019-05-11T02:11:14.954Z,100766.49
2019-05-11T02:13:30.194Z,100773.50
2019-05-11T02:15:57.149Z,100779.21
2019-05-11T02:18:23.906Z,100776.12
2019-05-11T02:20:50.533Z,100777.44
2019-05-11T02:23:17.634Z,100792.30
2019-05-11T02:25:44.694Z,100791.84
2019-05-11T02:28:11.549Z,100794.94
2019-05-11T02:30:38.503Z,100802.84
2019-05-11T02:33:05.430Z,100799.78
2019-05-11T02:35:32.586Z,100808.59
2019-05-11T02:37:59.630Z,100804.65
2019-05-11T02:40:26.659Z,100809.02
2019-05-11T02:42:53.506Z,100801.58
2019-05-11T02:45:42.176Z,100801.95
2019-05-11T02:48:10.156Z,100798.42
2019-05-11T02:50:38.144Z,100797.92
2019-05-11T02:53:04.916Z,100799.64
2019-05-11T02:55:32.631Z,100800.52
2019-05-11T02:58:00.099Z,100802.27
2019-05-11T03:00:35.023Z,100800.08
2019-05-11T03:03:01.777Z,100807.52
2019-05-11T03:05:28.598Z,100816.73
2019-05-11T03:07:55.550Z,100812.34
2019-05-11T03:10:22.636Z,100814.56
2019-05-11T03:12:49.597Z,100819.91
2019-05-11T03:15:16.590Z,100834.45
2019-05-11T03:17:43.670Z,100841.92
2019-05-11T03:20:10.519Z,100846.73
2019-05-11T03:22:37.550Z,100856.80
2019-05-11T03:25:04.403Z,100866.00
2019-05-11T03:27:31.765Z,100867.31
2019-05-11T03:30:01.114Z,100861.55
2019-05-11T03:32:27.573Z,100858.02
2019-05-11T03:34:54.333Z,100860.63
2019-05-11T03:37:21.486Z,100865.03
2019-05-11T03:39:48.606Z,100865.02
2019-05-11T03:42:16.729Z,100863.67
2019-05-11T03:44:43.586Z,100864.98
2019-05-11T03:47:10.432Z,100859.72
2019-05-11T03:49:37.217Z,100868.53
2019-05-11T03:52:06.411Z,100863.66
2019-05-11T03:54:33.301Z,100863.20
2019-05-11T03:57:01.194Z,100872.44
2019-05-11T03:59:28.268Z,100875.91
2019-05-11T04:01:55.039Z,100882.08
2019-05-11T04:04:21.882Z,100872.41
2019-05-11T04:06:48.779Z,100872.80
2019-05-11T04:09:17.312Z,100867.54
2019-05-11T04:11:44.150Z,100864.01
2019-05-11T04:14:11.221Z,100861.78
2019-05-11T04:16:38.329Z,100859.59
2019-05-11T04:19:05.064Z,100865.30
2019-05-11T04:21:31.722Z,100868.78
2019-05-11T04:23:58.760Z,100869.65
2019-05-11T04:26:25.409Z,100872.71
2019-05-11T04:28:52.412Z,100863.96
2019-05-11T04:31:19.342Z,100856.48
2019-05-11T04:33:46.275Z,100858.30
2019-05-11T04:36:12.971Z,100873.22
2019-05-11T04:38:40.220Z,100877.98
2019-05-11T04:41:06.773Z,100875.34
2019-05-11T04:43:33.802Z,100865.71
2019-05-11T04:46:00.853Z,100869.70
2019-05-11T04:48:27.958Z,100868.31
2019-05-11T04:50:54.767Z,100873.95
2019-05-11T04:53:21.527Z,100873.61
2019-05-11T04:55:48.433Z,100867.36
2019-05-11T04:58:15.386Z,100863.84
2019-05-11T05:00:42.217Z,100859.84
2019-05-11T05:03:08.859Z,100849.67
2019-05-11T05:05:35.572Z,100862.77
2019-05-11T05:08:09.571Z,100861.89
2019-05-11T05:10:30.823Z,100851.24
2019-05-11T05:13:09.766Z,100830.86
2019-05-11T05:15:26.098Z,100831.44
2019-05-11T05:17:53.195Z,100841.81
2019-05-11T05:20:19.788Z,100843.50
2019-05-11T05:22:47.436Z,100854.53
2019-05-11T05:25:14.766Z,100849.42
2019-05-11T05:27:42.024Z,100850.37
2019-05-11T05:30:11.188Z,100853.97
2019-05-11T05:32:40.330Z,100868.75
2019-05-11T05:35:08.217Z,100867.56
2019-05-11T05:37:35.636Z,100869.84
2019-05-11T05:40:03.962Z,100872.80
2019-05-11T05:42:31.481Z,100869.75
2019-05-11T05:45:00.417Z,100879.52
2019-05-11T05:47:27.643Z,100877.48
2019-05-11T05:49:54.965Z,100884.39
2019-05-11T05:52:22.780Z,100887.52
2019-05-11T05:54:50.137Z,100872.69
2019-05-11T05:57:17.807Z,100864.95
2019-05-11T05:59:45.432Z,100869.27
2019-05-11T06:02:13.043Z,100867.68
2019-05-11T06:04:40.482Z,100872.56
2019-05-11T06:07:07.802Z,100866.17
2019-05-11T06:09:35.060Z,100873.99
2019-05-11T06:12:03.091Z,100881.78
2019-05-11T06:14:30.331Z,100885.36
2019-05-11T06:16:57.692Z,100881.34
2019-05-11T06:19:24.925Z,100886.91
2019-05-11T06:21:52.345Z,100882.38
2019-05-11T06:24:20.136Z,100882.38
2019-05-11T06:26:47.769Z,100883.90
2019-05-11T06:29:15.931Z,100894.33
2019-05-11T06:31:43.502Z,100896.95
2019-05-11T06:34:11.677Z,100893.39
2019-05-11T06:36:39.638Z,100893.39
2019-05-11T06:39:07.447Z,100886.78
2019-05-11T06:41:35.324Z,100899.22
2019-05-11T06:44:02.725Z,100888.69
2019-05-11T06:46:30.526Z,100890.98
2019-05-11T06:48:57.913Z,100892.45
2019-05-11T06:51:25.444Z,100884.09
2019-05-11T06:53:53.003Z,100889.42
2019-05-11T06:56:20.714Z,100895.07
2019-05-11T06:58:48.053Z,100880.39
2019-05-11T07:01:15.791Z,100883.86
2019-05-11T07:03:43.333Z,100888.34
2019-05-11T07:06:11.033Z,100887.50
2019-05-11T07:08:38.529Z,100887.31
2019-05-11T07:11:06.010Z,100881.22
2019-05-11T07:13:33.346Z,100884.23
2019-05-11T07:16:01.015Z,100887.06
2019-05-11T07:18:28.493Z,100891.77
2019-05-11T07:20:56.209Z,100893.94
2019-05-11T07:23:23.788Z,100895.52
2019-05-11T07:25:51.255Z,100898.30
2019-05-11T07:28:18.424Z,100891.09
2019-05-11T07:30:46.740Z,100893.41
2019-05-11T07:33:14.482Z,100897.27
2019-05-11T07:35:42.049Z,100890.81
2019-05-11T07:38:09.262Z,100897.06
2019-05-11T07:40:38.446Z,100900.70
2019-05-11T07:43:07.362Z,100906.74
2019-05-11T07:45:35.005Z,100897.44
2019-05-11T07:48:02.765Z,100907.65
2019-05-11T07:50:30.086Z,100901.75
2019-05-11T07:52:58.845Z,100906.49
2019-05-11T07:55:28.192Z,100913.03
2019-05-11T07:57:58.405Z,100908.73
2019-05-11T08:00:27.862Z,100901.31
2019-05-11T08:02:54.544Z,100900.86
2019-05-11T08:05:22.246Z,100900.67
2019-05-11T08:07:49.608Z,100897.84
2019-05-11T08:10:18.584Z,100903.97
2019-05-11T08:12:48.058Z,100901.91
2019-05-11T08:15:18.149Z,100907.19
2019-05-11T08:17:45.081Z,100902.45
2019-05-11T08:20:12.969Z,100902.45
2019-05-11T08:22:40.744Z,100907.83
2019-05-11T08:25:09.271Z,100909.51
2019-05-11T08:27:37.867Z,100909.51
2019-05-11T08:30:05.673Z,100902.38
2019-05-11T08:32:33.523Z,100902.38
2019-05-11T08:35:00.797Z,100909.61
2019-05-11T08:37:28.505Z,100909.61
2019-05-11T08:39:58.475Z,100913.12
2019-05-11T08:42:28.693Z,100916.56
2019-05-11T08:45:14.753Z,100949.64
2019-05-11T08:47:28.334Z,100898.98
2019-05-11T08:49:58.862Z,100919.81
2019-05-11T08:52:27.904Z,100912.25
2019-05-11T08:54:57.620Z,100918.16
2019-05-11T08:57:24.610Z,100921.75
2019-05-11T08:59:51.983Z,100917.38
2019-05-11T09:02:19.566Z,100919.23
2019-05-11T09:04:48.409Z,100918.49
2019-05-11T09:07:18.410Z,100924.19
2019-05-11T09:09:45.569Z,100927.08
2019-05-11T09:12:13.220Z,100930.77
2019-05-11T09:14:40.539Z,100920.45
2019-05-11T09:17:07.946Z,100926.56
2019-05-11T09:19:35.498Z,100925.45
2019-05-11T09:22:03.345Z,100932.36
2019-05-11T09:24:30.829Z,100932.78
2019-05-11T09:26:58.823Z,100937.19
2019-05-11T09:29:28.157Z,100934.20
2019-05-11T09:31:57.607Z,100939.64
2019-05-11T09:34:24.869Z,100938.68
2019-05-11T09:36:52.507Z,100932.11
2019-05-11T09:39:19.980Z,100935.37
2019-05-11T09:41:48.819Z,100936.22
2019-05-11T09:44:18.198Z,100934.02
2019-05-11T09:46:47.918Z,100937.80
2019-05-11T09:49:15.323Z,100945.74
2019-05-11T09:51:43.044Z,100939.94
2019-05-11T09:54:10.484Z,100941.56
2019-05-11T09:56:38.308Z,100949.80
2019-05-11T09:59:08.573Z,100953.21
2019-05-11T10:01:37.671Z,100952.09
2019-05-11T10:04:05.042Z,100948.51
2019-05-11T10:06:33.837Z,100941.05
2019-05-11T10:09:03.677Z,100954.00
2019-05-11T10:11:31.069Z,100951.16
2019-05-11T10:13:58.807Z,100948.83
2019-05-11T10:16:28.065Z,100946.70
2019-05-11T10:18:55.534Z,100947.52
2019-05-11T10:21:23.093Z,100943.42
2019-05-11T10:23:50.146Z,100949.72
2019-05-11T10:26:18.783Z,100949.97
2019-05-11T10:28:48.199Z,100947.16
2019-05-11T10:31:17.808Z,100947.45
2019-05-11T10:33:45.079Z,100944.27
2019-05-11T10:36:11.901Z,100945.14
2019-05-11T10:38:38.725Z,100938.93
2019-05-11T10:41:08.519Z,100930.21
2019-05-11T10:43:34.496Z,100935.37
2019-05-11T10:46:16.102Z,100939.95
2019-05-11T10:48:32.236Z,100937.06
2019-05-11T10:51:01.301Z,100932.88
2019-05-11T10:53:28.913Z,100941.96
2019-05-11T10:55:58.103Z,100943.23
2019-05-11T10:58:25.760Z,100935.50
2019-05-11T11:00:53.506Z,100938.51
2019-05-11T11:03:22.446Z,100936.34
2019-05-11T11:05:50.095Z,100933.97
2019-05-11T11:08:18.559Z,100932.88
2019-05-11T11:10:48.353Z,100932.88
2019-05-11T11:13:18.813Z,100940.63
2019-05-11T11:15:48.441Z,100935.88
2019-05-11T11:18:18.810Z,100937.70
2019-05-11T11:20:48.946Z,100940.56
2019-05-11T11:23:17.762Z,100930.16
2019-05-11T11:25:47.973Z,100936.16
2019-05-11T11:28:17.515Z,100931.08
2019-05-11T11:30:47.914Z,100927.23
2019-05-11T11:33:15.033Z,100931.44
2019-05-11T11:35:42.446Z,100928.21
2019-05-11T11:38:11.583Z,100929.56
2019-05-11T11:40:42.405Z,100918.90
2019-05-11T11:43:08.812Z,100916.09
2019-05-11T11:45:38.131Z,100918.42
2019-05-11T11:48:08.467Z,100911.50
2019-05-11T11:50:37.550Z,100910.32
2019-05-11T11:53:04.768Z,100921.64
2019-05-11T11:55:32.264Z,100907.92
2019-05-11T11:58:00.427Z,100901.34
2019-05-11T12:00:29.017Z,100913.02
2019-05-11T12:02:58.169Z,100915.98
2019-05-11T12:05:28.280Z,100914.65
2019-05-11T12:07:57.928Z,100909.97
2019-05-11T12:10:25.451Z,100914.41
2019-05-11T12:12:54.440Z,100905.45
2019-05-11T12:15:22.128Z,100916.41
2019-05-11T12:17:49.514Z,100913.15
2019-05-11T12:20:18.051Z,100916.60
2019-05-11T12:22:47.677Z,100914.78
2019-05-11T12:25:15.416Z,100924.82
2019-05-11T12:27:43.193Z,100922.30
2019-05-11T12:30:10.938Z,100913.20
2019-05-11T12:32:40.213Z,100903.80
2019-05-11T12:35:08.686Z,100901.03
2019-05-11T12:37:37.731Z,100889.89
2019-05-11T12:40:08.229Z,100903.08
2019-05-11T12:42:37.766Z,100901.04
2019-05-11T12:45:07.547Z,100901.94
2019-05-11T12:47:35.326Z,100905.36
2019-05-11T12:50:03.067Z,100895.41
2019-05-11T12:52:31.817Z,100893.50
2019-05-11T12:54:59.215Z,100900.14
2019-05-11T12:57:28.151Z,100899.42
2019-05-11T12:59:58.356Z,100898.72
2019-05-11T13:02:27.938Z,100899.16
2019-05-11T13:04:55.314Z,100885.27
2019-05-11T13:07:23.009Z,100884.91
2019-05-11T13:09:50.714Z,100893.31
2019-05-11T13:12:18.735Z,100885.23
2019-05-11T13:14:46.005Z,100887.19
2019-05-11T13:17:13.556Z,100892.02
2019-05-11T13:19:41.121Z,100884.51
2019-05-11T13:22:08.884Z,100893.89
2019-05-11T13:24:38.445Z,100894.23
2019-05-11T13:27:05.865Z,100900.84
2019-05-11T13:29:33.036Z,100900.87
2019-05-11T13:32:00.109Z,100906.81
2019-05-11T13:34:31.150Z,100910.06
2019-05-11T13:36:57.492Z,100904.72
2019-05-11T13:39:24.375Z,100905.86
2019-05-11T13:41:52.022Z,100903.81
2019-05-11T13:47:12.918Z,100918.15
2019-05-11T13:49:41.353Z,100907.17
2019-05-11T13:52:08.968Z,100913.31
2019-05-11T13:54:37.602Z,100908.56
2019-05-11T13:57:04.948Z,100911.45
2019-05-11T13:59:33.450Z,100912.95
2019-05-11T14:02:00.997Z,100913.02
2019-05-11T14:04:28.650Z,100909.91
2019-05-11T14:06:55.931Z,100910.80
2019-05-11T14:09:23.312Z,100911.11
2019-05-11T14:11:50.924Z,100913.98
2019-05-11T14:14:18.711Z,100916.98
2019-05-11T14:16:48.301Z,100917.84
2019-05-11T14:19:17.600Z,100914.83
2019-05-11T14:21:44.716Z,100910.44
2019-05-11T14:24:12.294Z,100913.52
2019-05-11T14:26:39.991Z,100913.30
2019-05-11T14:29:08.696Z,100911.52
2019-05-11T14:31:35.700Z,100915.59
2019-05-11T14:34:02.695Z,100911.27
2019-05-11T14:36:29.539Z,100910.61
2019-05-11T14:38:57.781Z,100903.14
2019-05-11T14:41:24.890Z,100896.51
2019-05-11T14:43:51.478Z,100892.38
2019-05-11T14:46:20.934Z,100893.48
2019-05-11T14:48:48.192Z,100896.39
2019-05-11T14:51:15.065Z,100894.47
2019-05-11T14:53:41.796Z,100900.38
2019-05-11T14:56:08.634Z,100898.98
2019-05-11T14:58:38.511Z,100909.35
2019-05-11T15:01:05.555Z,100907.20
2019-05-11T15:03:32.607Z,100909.42
2019-05-11T15:05:59.543Z,100902.44
2019-05-11T15:08:28.465Z,100914.96
2019-05-11T15:10:55.075Z,100911.70
2019-05-11T15:13:21.584Z,100919.61
2019-05-11T15:15:48.782Z,100920.00
2019-05-11T15:18:17.731Z,100930.38
2019-05-11T15:20:44.941Z,100924.23
2019-05-11T15:23:11.653Z,100937.88
2019-05-11T15:25:38.554Z,100932.16
2019-05-11T15:28:05.850Z,100935.75
2019-05-11T15:30:32.997Z,100938.25
2019-05-11T15:33:00.052Z,100934.27
2019-05-11T15:35:28.423Z,100940.38
2019-05-11T15:37:58.046Z,100941.45
2019-05-11T15:40:24.173Z,100945.20
2019-05-11T15:42:50.886Z,100944.69
2019-05-11T15:45:18.940Z,100936.58
2019-05-11T15:47:48.427Z,100945.90
2019-05-11T15:50:15.529Z,100943.77
2019-05-11T15:52:42.395Z,100946.00
2019-05-11T15:55:09.517Z,100940.17
2019-05-11T15:57:38.196Z,100946.33
2019-05-11T16:00:08.998Z,100940.72
2019-05-11T16:02:37.832Z,100945.58
2019-05-11T16:05:08.461Z,100944.53
2019-05-11T16:07:34.811Z,100946.97
2019-05-11T16:10:02.056Z,100945.43
2019-05-11T16:12:28.870Z,100947.56
2019-05-11T16:14:57.595Z,100953.79
2019-05-11T16:17:24.221Z,100953.13
2019-05-11T16:19:50.803Z,100953.11
2019-05-11T16:22:20.847Z,100955.86
2019-05-11T16:24:48.510Z,100964.61
2019-05-11T16:27:15.448Z,100961.39
2019-05-11T16:29:42.974Z,100959.02
2019-05-11T16:32:10.159Z,100961.81
2019-05-11T16:34:38.160Z,100966.35
2019-05-11T16:37:07.765Z,100962.81
2019-05-11T16:39:34.132Z,100967.83
2019-05-11T16:42:01.287Z,100980.95
2019-05-11T16:44:28.875Z,100981.20
2019-05-11T16:46:55.563Z,100977.35
2019-05-11T16:49:28.456Z,100978.05
2019-05-11T16:51:51.403Z,100980.09
2019-05-11T16:54:18.218Z,100975.63
2019-05-11T16:56:45.083Z,100982.28
2019-05-11T16:59:12.232Z,100986.86
2019-05-11T17:01:39.463Z,100984.66
2019-05-11T17:04:07.879Z,100987.83
2019-05-11T17:06:35.019Z,100985.44
2019-05-11T17:09:01.696Z,100988.64
2019-05-11T17:11:29.858Z,100992.63
2019-05-11T17:13:57.605Z,100996.13
2019-05-11T17:16:24.339Z,101000.22
2019-05-11T17:18:51.383Z,100998.28
2019-05-11T17:21:18.438Z,100996.17
2019-05-11T17:23:48.986Z,100998.34
2019-05-11T17:26:15.905Z,100992.29
2019-05-11T17:28:42.855Z,101005.26
2019-05-11T17:31:09.954Z,101002.01
2019-05-11T17:33:38.445Z,101007.66
2019-05-11T17:36:08.124Z,100998.45
2019-05-11T17:38:34.180Z,101000.47
2019-05-11T17:41:01.263Z,101003.46
2019-05-11T17:43:28.252Z,100995.53
2019-05-11T17:45:55.367Z,100999.02
2019-05-11T17:48:22.410Z,101010.81
2019-05-11T17:50:49.089Z,101008.12
2019-05-11T17:53:17.746Z,101011.41
2019-05-11T17:55:44.912Z,101015.20
2019-05-11T17:58:12.447Z,101017.36
2019-05-11T18:00:39.666Z,101019.02
2019-05-11T18:03:11.146Z,101020.63
2019-05-11T18:05:37.939Z,101027.46
2019-05-11T18:08:05.151Z,101029.39
2019-05-11T18:10:31.801Z,101024.80
2019-05-11T18:12:59.755Z,101026.67
2019-05-11T18:15:27.353Z,101035.58
2019-05-11T18:17:54.301Z,101030.08
2019-05-11T18:20:22.139Z,101035.98
2019-05-11T18:22:49.440Z,101044.69
2019-05-11T18:25:18.209Z,101043.17
2019-05-11T18:27:47.698Z,101042.28
2019-05-11T18:30:14.107Z,101045.39
2019-05-11T18:32:40.839Z,101049.41
2019-05-11T18:35:08.460Z,101058.22
2019-05-11T18:37:38.677Z,101065.80
2019-05-11T18:40:05.743Z,101071.48
